Main page
METAR-TAF:

METAR-TAF

Airports :

Orange County Airport

Orange, Texas, United States

latitude: 30-04-09N, longitude: 093-48-13W, elevation: 13 ft

Current weather observation

The report was made 25 minutes ago, at 20:55 UTC
Wind 12 mph from the South with gusts up to 16 mph
Temperature 73°F
Humidity 89%
Pressure 29.91 in. Hg
Visibility: 10 miles
Broken clouds at a height of 700 ft
Broken clouds at a height of 1200 ft
Overcast at a height of 2200 ft

METAR: KORG 172055Z AUTO 19010G14KT 10SM BKN007 BKN012 OVC022 23/21 A2991 RMK AO2 T02310205

Time: 15:20 (21:20 UTC)


TAF: missing

Weather observations and forecasts of more than 4000 airports (METAR and TAF reports).

The available stations are represented by yellow and red dots on the map.

Hover mouse over dot to see the name of the station.

Then click to see weather observations and forecasts.

To change the map : click on the green buttons with a black cross to zoom in, on the green button with a dash to zoom out, or on the green arrows for adjacent maps.


METAR-TAF: